Time;durP1;ratioP1;P1;durP2;ratioP2;P2;SDS_P1;SDS_P2;PMS_P1;PMS_P2;Temp;Humidity;BMP_temperature;BMP_pressure;BME280_temperature;BME280_humidity;BME280_pressure;Samples;Min_cycle;Max_cycle;Signal;HPM_P1;HPM_P2
2023/12/21 00:01:43;;;;;;;4.65;2.30;;;;;;;7.86;100.00;99857.19;6244519;28;20350;-77
2023/12/21 00:04:45;;;;;;;2.95;1.98;;;;;;;7.88;100.00;99852.69;6253752;28;20056;-76
2023/12/21 00:07:47;;;;;;;5.50;2.88;;;;;;;7.88;100.00;99859.69;6245232;28;20041;-77
2023/12/21 00:10:49;;;;;;;3.92;2.75;;;;;;;7.96;100.00;99862.72;6254038;28;20057;-76
2023/12/21 00:13:50;;;;;;;3.35;1.77;;;;;;;8.00;100.00;99858.19;6253213;28;20358;-76
2023/12/21 00:16:51;;;;;;;2.40;1.80;;;;;;;8.05;100.00;99850.91;6253797;28;20057;-76
2023/12/21 00:19:53;;;;;;;2.80;1.88;;;;;;;7.99;100.00;99846.84;6253808;28;20068;-76
2023/12/21 00:22:56;;;;;;;5.15;2.33;;;;;;;7.98;100.00;99858.25;6242008;28;20046;-77
2023/12/21 00:25:57;;;;;;;3.03;1.95;;;;;;;8.05;100.00;99859.59;6238914;28;20181;-76
2023/12/21 00:28:58;;;;;;;3.15;1.90;;;;;;;8.11;100.00;99854.00;6248606;28;20250;-77
2023/12/21 00:32:00;;;;;;;2.47;2.13;;;;;;;8.19;100.00;99853.56;6246064;28;20049;-78
2023/12/21 00:35:01;;;;;;;3.35;2.42;;;;;;;8.17;100.00;99844.09;6244485;28;20046;-78
2023/12/21 00:38:04;;;;;;;6.10;2.60;;;;;;;8.20;100.00;99834.31;6244826;28;20042;-74
2023/12/21 00:41:05;;;;;;;3.53;2.50;;;;;;;8.22;100.00;99818.50;6249276;28;20355;-77
2023/12/21 00:44:07;;;;;;;5.90;3.25;;;;;;;8.18;100.00;99820.47;6253062;28;20057;-76
2023/12/21 00:47:08;;;;;;;3.95;2.42;;;;;;;8.17;100.00;99812.69;6253159;28;20041;-76
2023/12/21 00:50:10;;;;;;;4.80;2.88;;;;;;;8.10;100.00;99805.22;6252917;28;20053;-76
2023/12/21 00:53:13;;;;;;;7.88;2.55;;;;;;;8.17;100.00;99810.91;6252728;28;20053;-76
2023/12/21 00:56:14;;;;;;;3.70;2.47;;;;;;;8.20;100.00;99807.28;6252343;28;20136;-75
2023/12/21 00:59:15;;;;;;;4.28;2.67;;;;;;;8.29;100.00;99801.53;6253049;28;20045;-74
2023/12/21 01:02:18;;;;;;;3.97;2.70;;;;;;;8.25;100.00;99798.22;6230795;28;20054;-75
2023/12/21 01:05:19;;;;;;;4.80;3.00;;;;;;;8.25;100.00;99800.00;6251730;28;20054;-76
2023/12/21 01:08:22;;;;;;;6.50;2.67;;;;;;;8.32;100.00;99776.00;6252334;28;20132;-74
2023/12/21 01:11:23;;;;;;;4.35;2.92;;;;;;;8.22;100.00;99782.72;6252068;28;20053;-76
2023/12/21 01:14:25;;;;;;;4.35;2.72;;;;;;;8.23;100.00;99792.25;6251400;28;20438;-74
2023/12/21 01:17:26;;;;;;;3.92;2.88;;;;;;;8.21;100.00;99781.03;6232207;28;20050;-74
2023/12/21 01:20:28;;;;;;;4.85;2.90;;;;;;;8.24;100.00;99783.47;6227897;28;20096;-76
2023/12/21 01:23:30;;;;;;;4.78;2.65;;;;;;;8.27;100.00;99788.53;6227548;28;20054;-77
2023/12/21 01:26:32;;;;;;;5.72;3.05;;;;;;;8.25;100.00;99779.91;6227324;28;20054;-75
2023/12/21 01:29:33;;;;;;;3.67;2.50;;;;;;;8.25;100.00;99768.59;6227579;28;20050;-75
2023/12/21 01:32:34;;;;;;;5.78;3.17;;;;;;;8.29;100.00;99763.09;6227476;28;20052;-74
2023/12/21 01:35:36;;;;;;;3.85;2.60;;;;;;;8.30;100.00;99764.78;6226940;28;20054;-74
2023/12/21 01:38:38;;;;;;;3.53;2.60;;;;;;;8.30;100.00;99756.09;6227121;28;20077;-75
2023/12/21 01:41:40;;;;;;;3.53;2.08;;;;;;;8.32;100.00;99754.22;6227058;28;20049;-75
2023/12/21 01:44:41;;;;;;;6.53;3.10;;;;;;;8.39;100.00;99752.94;6242864;28;20045;-74
2023/12/21 01:47:43;;;;;;;4.78;2.67;;;;;;;8.45;100.00;99749.09;6251497;28;20046;-74
2023/12/21 01:50:45;;;;;;;5.15;3.20;;;;;;;8.43;100.00;99748.38;6251713;28;20049;-74
2023/12/21 01:53:49;;;;;;;5.65;2.80;;;;;;;8.50;100.00;99741.84;6250810;28;20048;-74
2023/12/21 01:56:51;;;;;;;5.35;2.65;;;;;;;8.60;100.00;99728.09;6251550;28;20049;-74
2023/12/21 01:59:52;;;;;;;5.25;2.83;;;;;;;8.41;100.00;99722.28;6249745;28;20049;-74
2023/12/21 02:02:54;;;;;;;4.10;2.72;;;;;;;8.41;100.00;99711.81;6230544;28;20045;-74
2023/12/21 02:05:55;;;;;;;7.00;2.92;;;;;;;8.39;100.00;99711.91;6250876;28;20045;-74
2023/12/21 02:08:58;;;;;;;6.07;3.20;;;;;;;8.38;100.00;99707.59;6251088;28;20057;-74
2023/12/21 02:11:59;;;;;;;5.50;3.40;;;;;;;8.42;100.00;99705.66;6251029;28;20124;-75
2023/12/21 02:15:00;;;;;;;5.88;3.53;;;;;;;8.33;100.00;99704.41;6250557;28;20442;-75
2023/12/21 02:18:03;;;;;;;6.30;3.80;;;;;;;8.38;100.00;99688.44;6251093;28;20357;-75
2023/12/21 02:21:05;;;;;;;7.60;3.35;;;;;;;8.32;100.00;99694.03;6250898;28;20053;-74
2023/12/21 02:24:14;;;;;;;9.60;3.00;;;;;;;8.38;100.00;99684.03;6250219;28;20057;-76
2023/12/21 02:27:15;;;;;;;9.90;3.33;;;;;;;8.37;100.00;99665.81;6250229;28;20041;-74
2023/12/21 02:30:17;;;;;;;7.75;3.67;;;;;;;8.31;100.00;99674.88;6242680;28;20053;-75
2023/12/21 02:33:18;;;;;;;7.07;3.83;;;;;;;8.31;100.00;99674.88;6242271;28;20052;-77
2023/12/21 02:36:19;;;;;;;7.53;4.10;;;;;;;8.36;100.00;99659.75;6249878;28;20045;-76
2023/12/21 02:39:22;;;;;;;9.60;3.20;;;;;;;8.31;100.00;99658.28;6250737;28;20055;-74
2023/12/21 02:42:23;;;;;;;5.95;3.35;;;;;;;8.28;100.00;99651.50;6241685;28;20339;-75
2023/12/21 02:45:25;;;;;;;7.05;3.60;;;;;;;8.29;100.00;99652.31;6228161;28;20465;-74
2023/12/21 02:48:26;;;;;;;7.07;3.55;;;;;;;8.33;100.00;99653.81;6225851;28;20053;-73
2023/12/21 02:51:27;;;;;;;12.32;4.22;;;;;;;8.32;100.00;99655.59;6225547;28;20058;-75
2023/12/21 02:54:31;;;;;;;5.55;3.28;;;;;;;8.31;100.00;99650.44;6236356;28;20053;-76
2023/12/21 02:57:32;;;;;;;7.90;3.50;;;;;;;8.34;100.00;99634.56;6247457;28;20051;-74
2023/12/21 03:00:34;;;;;;;8.77;4.50;;;;;;;8.31;100.00;99648.69;6249879;28;20049;-77
2023/12/21 03:03:35;;;;;;;7.03;4.00;;;;;;;8.34;100.00;99631.94;6249711;28;20331;-75
2023/12/21 03:06:36;;;;;;;9.57;4.40;;;;;;;8.39;100.00;99629.91;6225081;28;20446;-74
2023/12/21 03:09:39;;;;;;;11.27;3.88;;;;;;;8.39;100.00;99620.28;6225705;28;20058;-76
2023/12/21 03:12:40;;;;;;;6.88;3.72;;;;;;;8.35;100.00;99623.97;6225812;28;20045;-75
2023/12/21 03:15:42;;;;;;;6.82;4.07;;;;;;;8.36;100.00;99610.00;6232454;28;20050;-76
2023/12/21 03:18:45;;;;;;;5.45;3.20;;;;;;;8.34;100.00;99590.06;6232997;28;20434;-77
2023/12/21 03:21:46;;;;;;;7.05;3.92;;;;;;;8.37;100.00;99566.34;6239729;28;20045;-76
2023/12/21 03:24:49;;;;;;;7.65;3.97;;;;;;;8.34;100.00;99572.56;6249838;28;20046;-77
2023/12/21 03:27:50;;;;;;;6.22;3.75;;;;;;;8.37;100.00;99561.13;6250149;28;20056;-74
2023/12/21 03:30:51;;;;;;;7.32;3.60;;;;;;;8.36;100.00;99546.31;6249878;28;20053;-77
2023/12/21 03:33:53;;;;;;;5.47;3.10;;;;;;;8.40;100.00;99545.19;6249493;28;20053;-75
2023/12/21 03:36:54;;;;;;;6.03;3.42;;;;;;;8.35;100.00;99537.59;6252707;28;20056;-77
2023/12/21 03:39:57;;;;;;;6.05;3.05;;;;;;;8.36;100.00;99530.63;6246464;28;20050;-76
2023/12/21 03:42:58;;;;;;;8.90;2.65;;;;;;;8.35;100.00;99527.13;6254446;28;20053;-74
2023/12/21 03:46:00;;;;;;;2.85;2.08;;;;;;;8.36;100.00;99514.91;6254365;28;20056;-74
2023/12/21 03:49:01;;;;;;;4.65;1.90;;;;;;;8.32;100.00;99513.41;6254268;28;20057;-75
2023/12/21 03:52:02;;;;;;;4.40;2.25;;;;;;;8.32;100.00;99498.56;6249950;28;20049;-75
2023/12/21 03:55:06;;;;;;;3.00;1.77;;;;;;;8.29;100.00;99496.13;6253847;28;20366;-76
2023/12/21 03:58:08;;;;;;;3.85;2.33;;;;;;;8.29;100.00;99495.28;6254424;28;20056;-75
2023/12/21 04:01:09;;;;;;;3.25;1.92;;;;;;;8.31;100.00;99482.91;6243484;28;20053;-76
2023/12/21 04:04:11;;;;;;;3.45;2.10;;;;;;;8.28;100.00;99470.06;6248921;28;20046;-77
2023/12/21 04:07:12;;;;;;;4.07;2.40;;;;;;;8.29;100.00;99477.78;6248179;28;20060;-76
2023/12/21 04:10:15;;;;;;;4.57;2.80;;;;;;;8.37;100.00;99449.38;6253480;28;20056;-75
2023/12/21 04:13:16;;;;;;;5.38;2.65;;;;;;;8.39;100.00;99439.63;6253725;28;20327;-75
2023/12/21 04:16:18;;;;;;;4.00;2.38;;;;;;;8.42;100.00;99433.38;6241950;28;20362;-75
2023/12/21 04:19:19;;;;;;;3.45;2.40;;;;;;;8.41;100.00;99436.09;6242596;28;20049;-75
2023/12/21 04:22:20;;;;;;;5.07;2.28;;;;;;;8.37;100.00;99433.69;6253132;28;20077;-75
2023/12/21 04:25:23;;;;;;;5.05;2.55;;;;;;;8.46;100.00;99416.53;6252281;28;20045;-75
2023/12/21 04:28:24;;;;;;;4.55;2.58;;;;;;;8.40;100.00;99416.91;6252916;28;20048;-75
2023/12/21 04:31:26;;;;;;;7.35;3.30;;;;;;;8.46;100.00;99403.44;6245090;28;20052;-74
2023/12/21 04:34:27;;;;;;;3.53;2.15;;;;;;;8.35;100.00;99409.34;6245489;28;20072;-75
2023/12/21 04:37:29;;;;;;;4.43;2.33;;;;;;;8.39;100.00;99405.59;6251339;28;20362;-74
2023/12/21 04:40:31;;;;;;;2.95;1.77;;;;;;;8.45;100.00;99409.63;6253317;28;20442;-76
2023/12/21 04:43:33;;;;;;;3.45;2.03;;;;;;;8.41;100.00;99407.31;6253285;28;20450;-75
2023/12/21 04:46:34;;;;;;;7.47;1.80;;;;;;;8.41;100.00;99400.28;6252600;28;20060;-75
2023/12/21 04:49:35;;;;;;;3.88;1.70;;;;;;;8.50;100.00;99383.97;6253121;28;20056;-76
2023/12/21 04:52:37;;;;;;;4.20;2.10;;;;;;;8.44;100.00;99379.13;6243872;28;20052;-74
2023/12/21 04:55:40;;;;;;;2.55;1.95;;;;;;;8.47;100.00;99385.94;6252774;28;20137;-75
2023/12/21 04:58:42;;;;;;;3.03;1.55;;;;;;;8.35;100.00;99377.09;6253011;28;20049;-74
2023/12/21 05:01:43;;;;;;;2.80;1.55;;;;;;;8.31;100.00;99368.63;6251083;28;20144;-74
2023/12/21 05:04:45;;;;;;;3.88;2.13;;;;;;;8.32;100.00;99349.34;6246981;28;20349;-75
2023/12/21 05:07:46;;;;;;;2.40;1.50;;;;;;;8.31;100.00;99344.19;6251755;28;20183;-74
2023/12/21 05:10:49;;;;;;;4.65;1.83;;;;;;;8.35;100.00;99332.59;6252868;28;20052;-75
2023/12/21 05:13:50;;;;;;;2.67;2.00;;;;;;;8.40;100.00;99346.25;6251889;28;20048;-76
2023/12/21 05:16:51;;;;;;;2.38;1.73;;;;;;;8.39;100.00;99334.94;6237018;28;20052;-77
2023/12/21 05:19:53;;;;;;;3.17;1.95;;;;;;;8.48;100.00;99312.53;6231725;28;20061;-75
2023/12/21 05:22:54;;;;;;;3.35;2.35;;;;;;;8.36;100.00;99323.81;6237190;28;20046;-76
2023/12/21 05:25:57;;;;;;;1.88;1.50;;;;;;;8.34;100.00;99289.88;6227382;28;20054;-74
2023/12/21 05:28:58;;;;;;;7.38;2.17;;;;;;;8.34;100.00;99275.97;6228396;28;20054;-76
2023/12/21 05:32:00;;;;;;;3.85;1.75;;;;;;;8.32;100.00;99290.94;6252070;28;20053;-74
2023/12/21 05:35:01;;;;;;;2.65;1.70;;;;;;;8.35;100.00;99281.06;6251334;28;20053;-76
2023/12/21 05:38:02;;;;;;;3.05;1.88;;;;;;;8.39;100.00;99272.09;6251790;28;20472;-76
2023/12/21 05:41:05;;;;;;;5.22;1.90;;;;;;;8.36;100.00;99263.63;6251895;28;20446;-75
2023/12/21 05:44:07;;;;;;;3.15;1.60;;;;;;;8.37;100.00;99270.56;6251552;28;20120;-74
2023/12/21 05:47:08;;;;;;;3.03;2.17;;;;;;;8.34;100.00;99268.94;6251727;28;20060;-76
2023/12/21 05:50:10;;;;;;;2.92;1.70;;;;;;;8.38;100.00;99257.34;6263036;22;20045;-69
2023/12/21 05:53:12;;;;;;;4.20;1.85;;;;;;;8.38;100.00;99249.50;6251626;28;20060;-70
2023/12/21 05:56:14;;;;;;;4.45;2.15;;;;;;;8.37;100.00;99231.28;6251052;28;20053;-70
2023/12/21 05:59:16;;;;;;;2.05;1.63;;;;;;;8.35;100.00;99217.44;6251118;28;20045;-69
2023/12/21 06:02:17;;;;;;;3.45;1.88;;;;;;;8.35;100.00;99199.94;6250897;28;20054;-69
2023/12/21 06:05:19;;;;;;;6.32;1.83;;;;;;;8.35;100.00;99210.41;6250985;28;20053;-69
2023/12/21 06:08:20;;;;;;;4.13;2.00;;;;;;;8.38;100.00;99189.28;6251053;28;20045;-70
2023/12/21 06:11:23;;;;;;;2.45;1.52;;;;;;;8.40;100.00;99189.19;6251234;28;20045;-69
2023/12/21 06:14:24;;;;;;;3.05;1.50;;;;;;;8.38;100.00;99178.00;6250758;28;20061;-69
2023/12/21 06:17:26;;;;;;;2.17;1.58;;;;;;;8.38;100.00;99170.97;6251015;28;20041;-69
2023/12/21 06:20:27;;;;;;;2.42;1.50;;;;;;;8.40;100.00;99155.16;6251104;28;20049;-70
2023/12/21 06:23:29;;;;;;;1.73;1.38;;;;;;;8.41;100.00;99153.41;6250539;28;20061;-69
2023/12/21 06:26:32;;;;;;;2.28;1.27;;;;;;;8.41;100.00;99133.28;6250156;28;20061;-70
2023/12/21 06:29:33;;;;;;;1.35;1.00;;;;;;;8.41;100.00;99137.69;6250662;28;20049;-69
2023/12/21 06:32:34;;;;;;;1.23;1.10;;;;;;;8.39;100.00;99138.63;6250894;28;20049;-69
2023/12/21 06:35:36;;;;;;;1.90;1.30;;;;;;;8.43;100.00;99125.31;6250227;28;20053;-70
2023/12/21 06:38:37;;;;;;;0.73;0.73;;;;;;;8.48;100.00;99102.25;6250329;28;20081;-69
2023/12/21 06:41:40;;;;;;;1.23;1.00;;;;;;;8.44;100.00;99088.56;6249692;28;20052;-69
2023/12/21 06:44:42;;;;;;;2.67;1.10;;;;;;;8.39;100.00;99088.03;6249882;28;20049;-70
2023/12/21 06:47:43;;;;;;;1.05;0.90;;;;;;;8.47;100.00;99070.03;6249820;28;20450;-70
2023/12/21 06:50:45;;;;;;;2.17;1.30;;;;;;;8.42;100.00;99053.81;6249512;28;20052;-69
2023/12/21 06:53:46;;;;;;;0.93;0.82;;;;;;;8.41;100.00;99044.28;6247600;28;20052;-71
2023/12/21 06:56:49;;;;;;;0.57;0.57;;;;;;;8.38;100.00;99024.41;6247251;28;20058;-70
2023/12/21 06:59:50;;;;;;;0.80;0.73;;;;;;;8.37;100.00;99025.34;6250187;28;20053;-69
2023/12/21 07:02:51;;;;;;;0.60;0.60;;;;;;;8.43;100.00;99005.75;6249539;28;20045;-70
2023/12/21 07:05:53;;;;;;;0.68;0.65;;;;;;;8.46;100.00;99008.16;6249197;28;20045;-71
2023/12/21 07:08:54;;;;;;;0.70;0.50;;;;;;;8.43;100.00;99003.13;6248298;28;20370;-70
2023/12/21 07:11:57;;;;;;;0.50;0.40;;;;;;;8.45;100.00;98979.44;6253122;28;20054;-70
2023/12/21 07:14:58;;;;;;;0.77;0.60;;;;;;;8.47;100.00;98962.69;6245671;28;20049;-70
2023/12/21 07:18:00;;;;;;;1.83;0.57;;;;;;;8.45;100.00;98932.31;6255304;28;20042;-71
2023/12/21 07:21:01;;;;;;;0.30;0.30;;;;;;;8.40;100.00;98930.03;6254744;28;20053;-71
2023/12/21 07:24:03;;;;;;;1.20;0.50;;;;;;;8.43;100.00;98919.34;6254120;28;20041;-70
2023/12/21 07:27:05;;;;;;;0.65;0.50;;;;;;;8.42;100.00;98907.22;6254565;28;20053;-70
2023/12/21 07:30:08;;;;;;;0.50;0.45;;;;;;;8.41;100.00;98891.66;6254409;28;20056;-70
2023/12/21 07:33:10;;;;;;;0.30;0.30;;;;;;;8.42;100.00;98882.84;6254264;28;20050;-71
2023/12/21 07:36:11;;;;;;;0.47;0.43;;;;;;;8.41;100.00;98881.19;6254069;28;20313;-70
2023/12/21 07:39:13;;;;;;;0.57;0.50;;;;;;;8.42;100.00;98878.44;6254853;28;20446;-69
2023/12/21 07:42:17;;;;;;;0.80;0.40;;;;;;;8.42;100.00;98861.91;6254025;28;20049;-70
2023/12/21 07:45:18;;;;;;;0.40;0.40;;;;;;;8.42;100.00;98860.13;6254305;28;20425;-70
2023/12/21 07:48:20;;;;;;;0.40;0.32;;;;;;;8.45;100.00;98879.97;6254250;28;20354;-69
2023/12/21 07:51:21;;;;;;;0.20;0.20;;;;;;;8.44;100.00;98839.88;6253159;28;20046;-69
2023/12/21 07:54:23;;;;;;;0.30;0.30;;;;;;;8.38;100.00;98838.56;6254201;28;20053;-69
2023/12/21 07:57:26;;;;;;;0.40;0.30;;;;;;;8.35;100.00;98838.75;6254526;28;20064;-70
2023/12/21 08:00:27;;;;;;;0.45;0.45;;;;;;;8.39;100.00;98839.41;6254510;28;20056;-68
2023/12/21 08:03:29;;;;;;;0.28;0.28;;;;;;;8.41;100.00;98818.38;6250764;28;20081;-72
2023/12/21 08:06:30;;;;;;;1.95;0.52;;;;;;;8.39;100.00;98819.28;6248229;28;20389;-72
2023/12/21 08:09:32;;;;;;;1.65;0.40;;;;;;;8.39;100.00;98828.94;6244048;28;20049;-71
2023/12/21 08:12:35;;;;;;;2.25;0.65;;;;;;;8.41;100.00;98810.50;6253940;28;20056;-71
2023/12/21 08:15:36;;;;;;;1.85;0.60;;;;;;;8.38;100.00;98825.47;6253185;28;20143;-71
2023/12/21 08:18:37;;;;;;;0.60;0.55;;;;;;;8.39;100.00;98824.53;6253433;28;20042;-72
2023/12/21 08:21:39;;;;;;;2.00;0.80;;;;;;;8.45;100.00;98828.47;6252249;28;20058;-72
2023/12/21 08:24:41;;;;;;;0.65;0.50;;;;;;;8.41;100.00;98813.97;6252755;28;20053;-71
2023/12/21 08:27:43;;;;;;;1.50;0.50;;;;;;;8.46;100.00;98821.47;6253618;28;20049;-72
2023/12/21 08:30:45;;;;;;;1.40;0.80;;;;;;;8.46;100.00;98811.81;6237307;28;20065;-72
2023/12/21 08:33:46;;;;;;;0.60;0.43;;;;;;;8.44;100.00;98805.03;6244950;28;20049;-70
2023/12/21 08:36:47;;;;;;;1.00;0.57;;;;;;;8.43;100.00;98791.09;6250558;28;20045;-72
2023/12/21 08:39:49;;;;;;;0.65;0.60;;;;;;;8.47;100.00;98781.25;6247251;28;20053;-72
2023/12/21 08:42:51;;;;;;;1.23;0.70;;;;;;;8.45;100.00;98770.91;6242142;28;20060;-71
2023/12/21 08:45:53;;;;;;;1.42;0.80;;;;;;;8.45;100.00;98767.41;6246038;28;20061;-71
2023/12/21 08:48:54;;;;;;;0.35;0.35;;;;;;;8.46;100.00;98756.84;6252786;28;20057;-71
2023/12/21 08:51:55;;;;;;;0.73;0.57;;;;;;;8.47;100.00;98763.75;6251260;28;20049;-71
2023/12/21 08:54:57;;;;;;;0.85;0.57;;;;;;;8.47;100.00;98753.28;6251082;28;20346;-72
2023/12/21 08:58:00;;;;;;;0.52;0.40;;;;;;;8.48;100.00;98754.09;6251273;28;20049;-72
2023/12/21 09:01:01;;;;;;;2.28;0.70;;;;;;;8.53;100.00;98746.72;6248178;28;20041;-72
2023/12/21 09:04:04;;;;;;;0.60;0.60;;;;;;;8.52;100.00;98745.91;6250354;28;20042;-72
2023/12/21 09:07:06;;;;;;;1.00;0.60;;;;;;;8.58;100.00;98731.50;6250947;28;20081;-70
2023/12/21 09:10:08;;;;;;;0.65;0.40;;;;;;;8.58;100.00;98721.03;6251003;28;20064;-70
2023/12/21 09:13:11;;;;;;;2.17;0.68;;;;;;;8.59;100.00;98718.31;6250987;28;20053;-71
2023/12/21 09:16:14;;;;;;;1.13;0.60;;;;;;;8.58;100.00;98695.69;6249407;28;20450;-70
2023/12/21 09:19:16;;;;;;;1.20;0.35;;;;;;;8.60;100.00;98701.63;6249965;28;20049;-70
2023/12/21 09:22:17;;;;;;;0.50;0.50;;;;;;;8.62;100.00;98675.31;6250577;28;20049;-70
2023/12/21 09:25:19;;;;;;;0.90;0.50;;;;;;;8.68;100.00;98676.66;6248685;28;20049;-71
2023/12/21 09:28:22;;;;;;;0.57;0.52;;;;;;;8.68;100.00;98660.94;6246017;28;20592;-74
2023/12/21 09:31:23;;;;;;;0.95;0.50;;;;;;;8.74;100.00;98649.97;6250198;28;20184;-71
2023/12/21 09:34:25;;;;;;;0.90;0.60;;;;;;;8.73;100.00;98657.00;6249379;28;20064;-71
2023/12/21 09:37:26;;;;;;;1.35;0.55;;;;;;;8.75;100.00;98630.69;6246605;28;20049;-71
2023/12/21 09:40:27;;;;;;;0.40;0.40;;;;;;;8.73;100.00;98622.13;6250500;28;20049;-71
2023/12/21 09:43:32;;;;;;;0.32;0.32;;;;;;;8.78;100.00;98630.44;6250239;28;20049;-73
2023/12/21 09:46:38;;;;;;;0.57;0.50;;;;;;;8.75;100.00;98617.59;6251493;28;20050;-73
2023/12/21 09:49:41;;;;;;;0.50;0.50;;;;;;;8.88;100.00;98605.19;6251571;28;20132;-72
2023/12/21 09:52:44;;;;;;;0.73;0.52;;;;;;;8.86;100.00;98588.75;6251071;28;20354;-73
2023/12/21 09:55:47;;;;;;;1.35;0.80;;;;;;;8.78;100.00;98589.38;6251255;28;20049;-72
2023/12/21 09:58:50;;;;;;;2.00;0.52;;;;;;;8.77;100.00;98581.66;6251521;28;20052;-69
2023/12/21 10:01:51;;;;;;;1.38;0.40;;;;;;;8.77;100.00;98579.03;6251111;28;20057;-72
2023/12/21 10:04:52;;;;;;;0.40;0.40;;;;;;;8.80;100.00;98553.41;6251186;28;20049;-71
2023/12/21 10:07:54;;;;;;;0.55;0.40;;;;;;;8.82;100.00;98553.31;6251080;28;20049;-73
2023/12/21 10:10:56;;;;;;;0.20;0.20;;;;;;;8.86;100.00;98555.53;6251371;28;20052;-72
2023/12/21 10:14:01;;;;;;;0.77;0.47;;;;;;;8.91;100.00;98541.25;6250363;28;20129;-72
2023/12/21 10:17:03;;;;;;;0.60;0.57;;;;;;;8.89;100.00;98549.22;6250750;28;20049;-72
2023/12/21 10:20:05;;;;;;;0.50;0.30;;;;;;;8.94;100.00;98533.94;6251026;28;20465;-72
2023/12/21 10:23:07;;;;;;;0.50;0.50;;;;;;;8.94;100.00;98526.09;6250808;28;20046;-73
2023/12/21 10:26:10;;;;;;;0.30;0.30;;;;;;;8.92;100.00;98524.56;6250802;28;20045;-71
2023/12/21 10:29:15;;;;;;;1.13;0.57;;;;;;;8.98;100.00;98506.53;6250827;28;20045;-72
2023/12/21 10:32:17;;;;;;;0.50;0.50;;;;;;;9.02;100.00;98501.88;6250871;28;20060;-71
2023/12/21 10:35:19;;;;;;;1.30;0.60;;;;;;;9.10;100.00;98476.72;6250319;28;20046;-72
2023/12/21 10:38:21;;;;;;;2.38;0.60;;;;;;;9.09;100.00;98476.84;6250741;28;20045;-70
2023/12/21 10:41:24;;;;;;;0.50;0.40;;;;;;;9.10;100.00;98476.72;6250412;28;20056;-73
2023/12/21 10:44:28;;;;;;;0.57;0.50;;;;;;;9.10;100.00;98458.38;6250198;28;20076;-72
2023/12/21 10:47:30;;;;;;;0.40;0.40;;;;;;;9.09;100.00;98448.84;6250403;28;20049;-68
2023/12/21 10:50:31;;;;;;;0.32;0.32;;;;;;;9.12;100.00;98459.06;6249451;28;20045;-73
2023/12/21 10:53:34;;;;;;;10.80;0.50;;;;;;;9.15;100.00;98440.47;6247009;28;20327;-71
2023/12/21 10:56:36;;;;;;;0.55;0.40;;;;;;;9.15;100.00;98424.75;6249792;28;20461;-70
2023/12/21 10:59:43;;;;;;;0.52;0.40;;;;;;;9.14;100.00;98410.00;6250368;28;20041;-70
2023/12/21 11:02:45;;;;;;;0.32;0.32;;;;;;;9.16;100.00;98404.59;6249964;28;20075;-71
2023/12/21 11:05:47;;;;;;;3.83;0.57;;;;;;;9.17;100.00;98405.44;6249787;28;20053;-71
2023/12/21 11:08:49;;;;;;;0.38;0.38;;;;;;;9.15;100.00;98392.47;6250254;28;20049;-71
2023/12/21 11:11:50;;;;;;;0.50;0.50;;;;;;;9.14;100.00;98391.66;6250117;28;20561;-72
2023/12/21 11:14:53;;;;;;;0.30;0.30;;;;;;;9.17;100.00;98385.31;6249855;28;20057;-72
2023/12/21 11:17:59;;;;;;;0.45;0.40;;;;;;;9.21;100.00;98367.53;6250452;28;20053;-69
2023/12/21 11:21:02;;;;;;;1.25;0.57;;;;;;;9.18;100.00;98373.88;6249938;28;20433;-69
2023/12/21 11:24:04;;;;;;;3.92;0.50;;;;;;;9.23;100.00;98358.59;6247215;28;20081;-70
2023/12/21 11:27:07;;;;;;;0.52;0.52;;;;;;;9.23;100.00;98373.50;6249185;28;20057;-71
2023/12/21 11:30:11;;;;;;;1.05;0.30;;;;;;;9.32;100.00;98359.59;6249353;28;20049;-70
2023/12/21 11:33:13;;;;;;;2.20;0.50;;;;;;;9.36;100.00;98359.19;6249719;28;20088;-71
2023/12/21 11:36:22;;;;;;;0.47;0.47;;;;;;;9.48;100.00;98343.34;6249490;28;20068;-70
2023/12/21 11:39:26;;;;;;;0.50;0.50;;;;;;;9.56;100.00;98338.25;6249924;28;20097;-71
2023/12/21 11:42:34;;;;;;;0.45;0.45;;;;;;;9.55;100.00;98345.31;6249799;28;20453;-71
2023/12/21 11:45:38;;;;;;;0.28;0.28;;;;;;;9.63;100.00;98349.88;6249566;28;20045;-72
2023/12/21 11:48:40;;;;;;;0.88;0.20;;;;;;;9.61;100.00;98338.69;6249566;28;20045;-72
2023/12/21 11:51:49;;;;;;;0.77;0.45;;;;;;;9.61;100.00;98333.44;6249413;28;20054;-70
2023/12/21 11:54:51;;;;;;;0.40;0.40;;;;;;;9.61;100.00;98325.56;6249631;28;20057;-71
2023/12/21 11:58:07;;;;;;;1.00;0.60;;;;;;;9.59;100.00;98325.72;6251945;28;20057;-73
2023/12/21 12:01:22;;;;;;;0.38;0.32;;;;;;;9.61;100.00;98333.44;6237389;28;20144;-71
2023/12/21 12:04:23;;;;;;;1.75;0.50;;;;;;;9.54;100.00;98325.31;6250812;28;20646;-71
2023/12/21 12:07:26;;;;;;;0.68;0.40;;;;;;;9.57;100.00;98293.53;6253493;28;20056;-74
2023/12/21 12:10:27;;;;;;;0.65;0.55;;;;;;;9.59;100.00;98281.16;6253786;28;20049;-70
2023/12/21 12:13:30;;;;;;;1.33;0.80;;;;;;;9.61;100.00;98284.44;6246262;28;20057;-71
2023/12/21 12:16:33;;;;;;;2.53;0.85;;;;;;;9.72;100.00;98280.03;6250700;28;20057;-71
2023/12/21 12:19:37;;;;;;;0.45;0.25;;;;;;;9.70;100.00;98305.59;6249182;28;20453;-72
2023/12/21 12:22:39;;;;;;;1.58;0.30;;;;;;;9.63;100.00;98303.50;6253516;28;20046;-74
2023/12/21 12:25:41;;;;;;;3.05;0.52;;;;;;;9.48;100.00;98299.59;6253082;28;20435;-73
2023/12/21 12:28:44;;;;;;;0.20;0.20;;;;;;;9.28;100.00;98313.63;6253596;28;20432;-76
2023/12/21 12:31:48;;;;;;;1.00;0.38;;;;;;;9.13;100.00;98315.81;6253080;28;20086;-72
2023/12/21 12:34:51;;;;;;;0.30;0.20;;;;;;;8.97;100.00;98284.84;6248127;28;20049;-72
2023/12/21 12:37:52;;;;;;;1.50;0.38;;;;;;;8.87;100.00;98278.75;6253117;28;20091;-72
2023/12/21 12:40:54;;;;;;;0.40;0.20;;;;;;;8.73;100.00;98298.25;6253120;28;20045;-75
2023/12/21 12:43:55;;;;;;;1.05;0.40;;;;;;;8.53;100.00;98286.00;6252651;28;20350;-72
2023/12/21 12:46:58;;;;;;;2.50;0.57;;;;;;;8.58;100.00;98268.13;6252979;28;20092;-71
2023/12/21 12:49:59;;;;;;;1.77;0.60;;;;;;;8.51;100.00;98267.84;6252799;28;20061;-71
2023/12/21 12:53:03;;;;;;;5.10;0.70;;;;;;;8.47;100.00;98292.59;6253094;28;20434;-71
2023/12/21 12:56:05;;;;;;;4.18;0.55;;;;;;;8.49;100.00;98263.66;6252785;28;20049;-72
2023/12/21 12:59:08;;;;;;;8.07;0.43;;;;;;;8.62;100.00;98262.50;6253070;28;20045;-72
2023/12/21 13:02:11;;;;;;;5.03;0.77;;;;;;;8.70;100.00;98256.63;6252633;28;20045;-72
2023/12/21 13:05:15;;;;;;;3.45;0.40;;;;;;;8.74;100.00;98292.06;6252301;28;20054;-72
2023/12/21 13:08:16;;;;;;;3.42;0.60;;;;;;;8.79;100.00;98292.50;6251517;28;20049;-72
2023/12/21 13:11:17;;;;;;;1.95;0.50;;;;;;;8.96;100.00;98291.06;6252280;28;20450;-72
2023/12/21 13:14:19;;;;;;;5.20;0.60;;;;;;;9.10;100.00;98289.88;6252318;28;20181;-71
2023/12/21 13:17:21;;;;;;;6.68;1.23;;;;;;;9.22;100.00;98288.81;6252602;28;20050;-69
2023/12/21 13:20:23;;;;;;;8.10;1.08;;;;;;;9.18;100.00;98287.41;6251404;28;20046;-71
2023/12/21 13:23:24;;;;;;;7.15;1.20;;;;;;;8.98;100.00;98359.84;6251672;28;20049;-71
2023/12/21 13:26:25;;;;;;;3.67;0.70;;;;;;;7.74;100.00;98380.50;6250728;28;20045;-71
2023/12/21 13:29:27;;;;;;;0.80;0.32;;;;;;;7.22;100.00;98413.34;6246390;28;20048;-71
2023/12/21 13:32:30;;;;;;;1.50;0.60;;;;;;;6.68;100.00;98427.03;6252201;28;20172;-70
2023/12/21 13:35:31;;;;;;;1.02;0.40;;;;;;;6.47;100.00;98426.00;6251907;28;20132;-71
2023/12/21 13:38:32;;;;;;;0.70;0.57;;;;;;;6.46;100.00;98409.53;6246163;28;20053;-74
2023/12/21 13:41:34;;;;;;;1.70;0.50;;;;;;;6.32;100.00;98370.59;6247391;28;20050;-71
2023/12/21 13:44:35;;;;;;;6.60;0.30;;;;;;;6.26;100.00;98353.59;6251507;28;20129;-71
2023/12/21 13:47:38;;;;;;;3.22;0.40;;;;;;;6.19;100.00;98386.31;6252015;28;20350;-71
2023/12/21 13:50:39;;;;;;;1.05;0.50;;;;;;;6.12;100.00;98444.22;6251252;28;20057;-71
2023/12/21 13:53:41;;;;;;;5.80;1.50;;;;;;;5.98;100.00;98427.78;6251889;28;20060;-71
2023/12/21 13:56:43;;;;;;;0.85;0.20;;;;;;;6.12;100.00;98418.97;6251433;28;20053;-71
2023/12/21 13:59:44;;;;;;;1.35;0.40;;;;;;;6.05;100.00;98399.53;6251633;28;20061;-71
2023/12/21 14:02:49;;;;;;;3.25;0.63;;;;;;;6.17;100.00;98392.56;6251503;28;20060;-70
2023/12/21 14:05:50;;;;;;;0.30;0.28;;;;;;;6.06;100.00;98386.34;6251102;28;20077;-71
2023/12/21 14:08:51;;;;;;;3.92;0.32;;;;;;;6.10;100.00;98360.91;6251738;28;20049;-71
2023/12/21 14:11:53;;;;;;;0.82;0.57;;;;;;;6.17;100.00;98345.63;6251107;28;20051;-70
2023/12/21 14:14:54;;;;;;;5.47;0.45;;;;;;;6.16;100.00;98359.63;6251152;28;20045;-71
2023/12/21 14:17:57;;;;;;;2.65;0.38;;;;;;;6.25;100.00;98372.81;6251266;28;20045;-70